Terminal Aerodrome Forecast
Issued by NWS

Home | Current Version | Previous Version | Text Only | Print | Product List | Glossary On
Versions: 1 2 3 4 5 6 7 8 9 10 11 12 13 14 15 16 17 18 19 20 21 22 23 24
000
FTUS41 KBUF 192328
TAFJHW
TAF
KJHW 192328Z 2000/2024 29013G19KT P6SM FEW025 BKN060
     FM200200 VRB03KT P6SM SCT050
     FM200800 00000KT 2SM BR BKN070
     FM201300 VRB03KT P6SM SCT035
     FM201600 28008KT P6SM SCT040
     FM202000 28010KT P6SM FEW250
      AMD LTD TO CLD VIS AND WIND=

USA.gov is the U.S. government's official web portal to all federal, state and local government web resources and services.